Time;durP1;ratioP1;P1;durP2;ratioP2;P2;SDS_P1;SDS_P2;PMS_P1;PMS_P2;Temp;Humidity;BMP_temperature;BMP_pressure;BME280_temperature;BME280_humidity;BME280_pressure;Samples;Min_cycle;Max_cycle;Signal;HPM_P1;HPM_P2
2021/06/02 00:01:16;;;;;;;9.93;3.85;;;;;;;13.04;79.38;100779.88;6016300;23;20411;-83
2021/06/02 00:03:43;;;;;;;5.10;3.42;;;;;;;12.95;79.47;100765.66;6013539;23;20093;-85
2021/06/02 00:06:09;;;;;;;6.45;3.63;;;;;;;12.89;80.03;100764.56;6013961;23;20006;-85
2021/06/02 00:08:37;;;;;;;6.47;3.55;;;;;;;12.93;79.74;100767.72;6037499;23;20007;-84
2021/06/02 00:11:05;;;;;;;7.00;3.63;;;;;;;12.89;79.67;100764.56;6015346;23;20007;-85
2021/06/02 00:13:31;;;;;;;5.25;3.60;;;;;;;12.81;79.78;100753.91;6039650;23;20007;-85
2021/06/02 00:15:57;;;;;;;5.47;3.40;;;;;;;12.61;80.11;100737.47;6016205;23;20013;-84
2021/06/02 00:18:22;;;;;;;6.10;3.58;;;;;;;12.64;80.44;100755.97;6014087;23;20007;-86
2021/06/02 00:20:48;;;;;;;9.57;3.83;;;;;;;12.75;80.27;100763.59;6039381;23;20429;-85
2021/06/02 00:23:13;;;;;;;6.13;3.88;;;;;;;12.71;80.36;100756.06;6016570;23;20029;-82
2021/06/02 00:25:39;;;;;;;6.63;3.42;;;;;;;12.69;80.95;100763.50;6039558;23;20013;-84
2021/06/02 00:28:04;;;;;;;6.90;3.38;;;;;;;12.54;81.08;100758.97;6009486;23;20035;-86
2021/06/02 00:30:30;;;;;;;6.00;3.80;;;;;;;12.66;80.82;100761.19;5987589;23;20085;-84
2021/06/02 00:32:57;;;;;;;4.28;3.03;;;;;;;12.76;79.96;100762.56;5986198;23;20015;-85
2021/06/02 00:35:22;;;;;;;5.82;3.60;;;;;;;12.80;79.88;100748.69;5987919;23;20011;-84
2021/06/02 00:37:49;;;;;;;5.50;3.50;;;;;;;12.73;79.99;100738.66;6009521;23;20083;-82
2021/06/02 00:40:25;;;;;;;5.20;3.50;;;;;;;12.72;80.13;100745.06;5985084;23;20476;-84
2021/06/02 00:42:51;;;;;;;5.90;3.97;;;;;;;12.70;80.09;100746.28;5988064;23;20014;-84
2021/06/02 00:45:19;;;;;;;7.20;3.75;;;;;;;12.65;80.04;100733.38;6009230;23;20015;-84
2021/06/02 00:47:44;;;;;;;7.13;4.45;;;;;;;12.53;80.32;100726.78;5986712;23;20051;-85
2021/06/02 00:50:10;;;;;;;6.20;3.72;;;;;;;12.31;81.08;100698.94;6009941;23;20047;-85
2021/06/02 00:52:36;;;;;;;9.20;5.00;;;;;;;12.35;80.91;100700.22;5989324;23;20118;-82
2021/06/02 00:55:02;;;;;;;6.07;3.75;;;;;;;12.51;81.43;100731.53;5986951;23;20022;-86
2021/06/02 00:57:29;;;;;;;6.68;3.80;;;;;;;12.27;81.53;100698.47;5990043;23;19999;-86
2021/06/02 01:00:03;;;;;;;9.07;3.85;;;;;;;12.51;81.57;100728.84;5986664;23;20011;-83
2021/06/02 01:02:31;;;;;;;5.75;3.55;;;;;;;12.49;81.06;100722.78;6010080;23;20015;-84
2021/06/02 01:04:56;;;;;;;9.68;4.47;;;;;;;12.47;81.51;100724.88;5986526;23;20011;-83
2021/06/02 01:07:22;;;;;;;5.97;3.47;;;;;;;12.46;81.32;100728.56;6010613;23;20014;-84
2021/06/02 01:09:51;;;;;;;4.80;3.42;;;;;;;12.44;81.36;100736.03;6010555;23;20014;-86
2021/06/02 01:12:23;;;;;;;6.22;3.38;;;;;;;12.50;80.85;100728.00;5986495;23;20010;-84
2021/06/02 01:14:49;;;;;;;7.90;3.60;;;;;;;12.41;81.24;100731.84;5987453;23;20011;-84
2021/06/02 01:17:17;;;;;;;5.10;3.80;;;;;;;12.36;81.78;100730.72;5985795;23;20090;-84
2021/06/02 01:19:46;;;;;;;7.25;3.35;;;;;;;12.35;81.71;100737.97;5986349;23;20094;-85
2021/06/02 01:22:12;;;;;;;6.07;3.67;;;;;;;12.38;81.88;100737.59;6012043;23;20041;-86
2021/06/02 01:24:38;;;;;;;7.30;3.90;;;;;;;12.48;81.53;100735.44;6009612;23;20625;-84
2021/06/02 01:27:07;;;;;;;4.70;3.30;;;;;;;12.55;80.66;100735.53;5987440;23;20011;-83
2021/06/02 01:29:34;;;;;;;8.20;3.55;;;;;;;12.59;80.98;100735.97;5986889;23;20042;-86
2021/06/02 01:32:15;;;;;;;5.72;3.13;;;;;;;12.57;81.03;100727.25;5985012;23;20011;-83
2021/06/02 01:35:11;;;;;;;7.70;3.67;;;;;;;12.50;81.21;100724.47;6033469;23;20007;-84
2021/06/02 01:37:45;;;;;;;6.35;3.30;;;;;;;12.41;81.43;100720.19;6010275;23;19999;-83
2021/06/02 01:40:48;;;;;;;5.65;3.08;;;;;;;12.35;81.60;100718.28;6009411;23;20015;-84
2021/06/02 01:43:35;;;;;;;5.75;2.80;;;;;;;12.21;81.74;100695.72;6008837;23;20369;-84
2021/06/02 01:46:30;;;;;;;5.85;3.47;;;;;;;12.20;82.25;100708.34;6009617;23;20092;-83
2021/06/02 01:49:26;;;;;;;7.32;3.33;;;;;;;12.16;82.26;100701.66;6008724;23;20019;-83
2021/06/02 01:52:42;;;;;;;5.22;3.50;;;;;;;12.16;82.17;100703.53;6036317;23;20026;-84
2021/06/02 01:55:45;;;;;;;5.95;3.65;;;;;;;12.17;82.14;100710.56;5963481;23;20103;-84
2021/06/02 01:58:36;;;;;;;7.43;3.55;;;;;;;12.14;82.25;100706.38;6007317;23;20018;-83
2021/06/02 02:01:39;;;;;;;4.93;3.00;;;;;;;12.14;82.35;100709.09;6008473;23;20007;-84
2021/06/02 02:04:13;;;;;;;5.93;3.35;;;;;;;12.14;82.04;100705.56;6033580;23;20005;-83
2021/06/02 02:07:16;;;;;;;7.22;3.88;;;;;;;12.13;81.62;100706.59;6034975;23;19999;-84
2021/06/02 02:10:10;;;;;;;5.80;3.30;;;;;;;12.15;81.34;100693.78;6033519;23;20010;-85
2021/06/02 02:12:35;;;;;;;6.10;3.40;;;;;;;12.24;81.13;100704.25;6010683;23;20011;-85
2021/06/02 02:15:22;;;;;;;7.45;3.63;;;;;;;12.20;80.70;100692.19;6010004;23;20740;-82
2021/06/02 02:17:50;;;;;;;6.10;3.65;;;;;;;12.26;80.28;100695.97;6007098;23;20314;-83
2021/06/02 02:20:38;;;;;;;6.95;3.33;;;;;;;12.22;80.66;100698.19;6009645;23;20015;-83
2021/06/02 02:23:37;;;;;;;6.68;3.85;;;;;;;12.10;80.67;100697.03;5989239;23;20015;-83
2021/06/02 02:26:19;;;;;;;7.20;3.22;;;;;;;11.96;81.40;100674.47;6008871;23;20051;-84
2021/06/02 02:28:57;;;;;;;7.07;3.20;;;;;;;11.87;81.92;100667.47;6008212;23;20437;-85
2021/06/02 02:31:42;;;;;;;7.82;3.47;;;;;;;11.78;82.21;100665.88;5986535;23;20017;-86
2021/06/02 02:34:37;;;;;;;6.68;3.63;;;;;;;11.73;82.27;100668.31;6009675;23;20446;-84
2021/06/02 02:37:07;;;;;;;7.72;3.28;;;;;;;11.76;81.83;100676.00;6009801;23;20354;-84
2021/06/02 02:39:42;;;;;;;7.53;3.60;;;;;;;11.77;81.96;100674.97;5984565;23;20042;-84
2021/06/02 02:42:21;;;;;;;6.32;3.70;;;;;;;11.73;82.11;100673.69;6010183;23;20361;-83
2021/06/02 02:45:14;;;;;;;8.27;4.13;;;;;;;11.73;82.01;100669.13;6009276;23;20017;-85
2021/06/02 02:48:16;;;;;;;6.15;3.35;;;;;;;11.77;82.27;100669.59;5985322;23;20014;-85
2021/06/02 02:51:01;;;;;;;;;;;;;;;11.76;81.66;100666.06;5987435;23;20030;-85
2021/06/02 02:53:43;;;;;;;6.35;3.25;;;;;;;11.75;81.90;100672.47;5985645;23;20296;-84
2021/06/02 02:56:15;;;;;;;8.30;3.90;;;;;;;11.77;81.75;100665.03;6009721;23;20007;-84
2021/06/02 02:58:53;;;;;;;8.27;3.45;;;;;;;11.75;81.72;100655.47;5986169;23;20037;-85
2021/06/02 03:01:37;;;;;;;7.65;3.58;;;;;;;11.61;82.38;100647.19;5984934;23;20003;-84
2021/06/02 03:04:12;;;;;;;9.32;3.40;;;;;;;11.53;82.86;100639.19;5988230;23;20548;-84
2021/06/02 03:06:42;;;;;;;7.13;3.60;;;;;;;11.53;82.92;100646.44;5987463;23;20097;-85
2021/06/02 03:09:18;;;;;;;12.70;4.05;;;;;;;11.51;83.01;100640.41;5988067;23;20011;-83
2021/06/02 03:11:43;;;;;;;6.72;4.03;;;;;;;11.43;83.60;100647.56;5989008;23;20098;-84
2021/06/02 03:14:22;;;;;;;8.45;3.63;;;;;;;11.41;83.42;100638.00;6034795;23;20087;-84
2021/06/02 03:16:54;;;;;;;8.70;3.55;;;;;;;11.37;83.40;100642.91;5987135;23;20437;-84
2021/06/02 03:19:31;;;;;;;6.03;3.40;;;;;;;11.29;83.97;100639.47;6009087;23;20011;-84
2021/06/02 03:22:04;;;;;;;9.60;4.65;;;;;;;11.30;84.00;100639.28;6011801;23;20512;-85
2021/06/02 03:24:50;;;;;;;7.43;3.90;;;;;;;11.21;84.23;100617.00;6011553;23;20293;-84
2021/06/02 03:27:53;;;;;;;5.75;3.67;;;;;;;11.40;83.82;100631.75;6038347;23;20070;-84
2021/06/02 03:30:37;;;;;;;6.32;3.50;;;;;;;11.43;83.91;100639.50;6038538;23;20089;-84
2021/06/02 03:33:26;;;;;;;7.10;3.35;;;;;;;11.45;83.84;100625.84;6015326;23;20003;-85
2021/06/02 03:36:07;;;;;;;7.80;3.55;;;;;;;11.40;83.70;100623.69;6039118;23;20045;-85
2021/06/02 03:39:00;;;;;;;6.22;3.72;;;;;;;11.42;83.80;100627.03;6063413;23;20460;-86
2021/06/02 03:41:34;;;;;;;8.57;3.92;;;;;;;11.48;83.46;100633.53;6039626;23;20760;-84
2021/06/02 03:44:27;;;;;;;9.45;3.45;;;;;;;11.54;83.05;100634.69;6037631;23;20002;-84
2021/06/02 03:47:05;;;;;;;8.50;3.63;;;;;;;11.56;82.83;100624.53;6025561;23;20038;-84
2021/06/02 03:49:51;;;;;;;6.68;3.53;;;;;;;11.48;82.79;100616.56;6036735;23;20009;-84
2021/06/02 03:52:27;;;;;;;7.57;3.47;;;;;;;11.38;83.38;100606.06;6015423;23;20091;-86
2021/06/02 03:55:34;;;;;;;8.35;3.47;;;;;;;11.30;83.83;100604.31;6038553;23;20447;-84
2021/06/02 03:58:06;;;;;;;7.78;3.75;;;;;;;11.16;84.24;100576.34;6005748;23;20018;-83
2021/06/02 04:00:37;;;;;;;7.75;4.00;;;;;;;11.33;83.79;100605.78;6014267;23;20011;-84
2021/06/02 04:03:02;;;;;;;7.22;3.30;;;;;;;11.37;84.01;100620.53;6014057;23;20011;-83
2021/06/02 04:05:58;;;;;;;6.32;4.10;;;;;;;11.42;83.54;100620.81;6038591;23;20782;-84
2021/06/02 04:08:48;;;;;;;6.90;3.33;;;;;;;11.41;83.67;100622.69;6015133;23;20006;-84
2021/06/02 04:11:24;;;;;;;5.22;3.50;;;;;;;11.39;83.29;100616.63;6017323;23;20030;-86
2021/06/02 04:14:06;;;;;;;5.88;3.38;;;;;;;11.41;83.52;100614.59;6014677;23;20050;-84
2021/06/02 04:16:41;;;;;;;8.45;3.25;;;;;;;11.46;83.23;100619.44;6015020;23;20445;-84
2021/06/02 04:19:09;;;;;;;8.85;4.07;;;;;;;11.37;83.52;100604.38;6012592;23;20019;-83
2021/06/02 04:21:40;;;;;;;4.72;3.35;;;;;;;11.45;83.74;100609.69;6014085;23;20011;-84
2021/06/02 04:24:14;;;;;;;6.38;3.33;;;;;;;11.31;83.63;100583.59;6015541;23;20022;-85
2021/06/02 04:26:41;;;;;;;6.15;3.25;;;;;;;11.35;83.55;100607.28;6012599;23;20003;-84
2021/06/02 04:29:10;;;;;;;7.40;3.38;;;;;;;11.30;84.11;100603.44;6013187;23;20002;-84
2021/06/02 04:31:37;;;;;;;5.07;3.03;;;;;;;11.23;84.36;100597.97;6013762;23;20007;-84
2021/06/02 04:34:03;;;;;;;7.18;3.20;;;;;;;11.31;83.64;100605.97;6014301;23;20098;-84
2021/06/02 04:36:30;;;;;;;5.15;2.85;;;;;;;11.25;84.00;100595.94;6016176;23;20031;-84
2021/06/02 04:38:58;;;;;;;5.32;3.05;;;;;;;11.10;83.99;100587.84;6016735;23;20007;-85
2021/06/02 04:41:28;;;;;;;7.38;3.28;;;;;;;11.13;84.39;100600.09;6014825;23;20006;-84
2021/06/02 04:43:56;;;;;;;7.82;3.38;;;;;;;11.13;84.29;100597.41;6014898;23;20010;-84
2021/06/02 04:46:22;;;;;;;5.22;2.75;;;;;;;11.10;84.28;100595.09;6016090;23;20018;-84
2021/06/02 04:48:48;;;;;;;5.03;2.88;;;;;;;11.20;84.16;100603.72;6013155;23;20007;-84
2021/06/02 04:52:05;;;;;;;7.82;2.70;;;;;;;11.06;84.05;100580.31;6015286;23;20007;-85
2021/06/02 04:55:08;;;;;;;6.43;3.15;;;;;;;11.17;84.20;100604.94;6016182;23;20007;-83
2021/06/02 04:58:02;;;;;;;6.68;3.13;;;;;;;11.15;84.41;100595.38;6063184;23;20082;-83
2021/06/02 05:00:34;;;;;;;5.70;3.35;;;;;;;11.17;84.44;100598.72;6036689;23;20003;-84
2021/06/02 05:03:18;;;;;;;5.50;3.25;;;;;;;11.15;84.52;100593.50;6037385;23;20093;-85
2021/06/02 05:06:08;;;;;;;4.72;3.00;;;;;;;11.14;84.70;100608.00;6037607;23;20034;-84
2021/06/02 05:08:58;;;;;;;5.50;3.08;;;;;;;11.17;84.56;100613.00;6035757;23;20105;-84
2021/06/02 05:11:26;;;;;;;4.90;3.00;;;;;;;11.30;84.00;100620.44;6014248;23;20068;-84
2021/06/02 05:14:23;;;;;;;5.20;3.13;;;;;;;11.37;84.03;100624.06;6062408;23;20014;-84
2021/06/02 05:16:54;;;;;;;5.35;2.95;;;;;;;11.41;84.18;100611.09;6039752;23;20083;-84
2021/06/02 05:22:25;;;;;;;4.97;3.22;;;;;;;11.37;84.38;100618.69;6064096;23;20105;-85
2021/06/02 05:25:09;;;;;;;5.35;3.35;;;;;;;11.44;84.34;100622.31;6038759;23;20047;-85
2021/06/02 05:27:49;;;;;;;4.70;3.03;;;;;;;11.53;83.80;100627.59;6014680;23;20015;-84
2021/06/02 05:30:15;;;;;;;5.55;3.35;;;;;;;11.59;83.52;100624.16;6036832;23;20007;-84
2021/06/02 05:33:09;;;;;;;6.95;3.15;;;;;;;11.60;83.84;100615.06;6063538;23;20035;-85
2021/06/02 05:36:23;;;;;;;4.78;3.10;;;;;;;11.59;84.40;100618.78;5987329;23;20429;-84
2021/06/02 05:39:04;;;;;;;4.55;3.17;;;;;;;11.52;84.97;100618.69;6027920;23;20010;-83
2021/06/02 05:41:48;;;;;;;5.53;3.20;;;;;;;11.49;85.16;100608.31;6014452;23;20006;-84
2021/06/02 05:44:25;;;;;;;5.75;3.30;;;;;;;11.50;85.25;100614.50;6036644;23;20014;-84
2021/06/02 05:47:12;;;;;;;5.57;3.30;;;;;;;11.56;85.21;100613.75;6038334;23;20454;-85
2021/06/02 05:50:08;;;;;;;5.57;3.28;;;;;;;11.53;85.17;100611.44;6061925;23;20003;-83
2021/06/02 05:52:43;;;;;;;5.05;2.80;;;;;;;11.61;85.62;100625.66;6038339;23;20015;-84
2021/06/02 05:55:11;;;;;;;4.95;3.42;;;;;;;11.60;84.99;100615.91;6013684;23;20756;-83
2021/06/02 05:58:13;;;;;;;6.63;3.38;;;;;;;11.61;85.63;100619.44;6035378;23;20511;-84
2021/06/02 06:00:57;;;;;;;7.53;3.50;;;;;;;11.59;85.82;100613.38;6036486;23;20010;-85
2021/06/02 06:03:38;;;;;;;6.72;3.60;;;;;;;11.63;85.89;100620.91;6039531;23;20077;-85
2021/06/02 06:06:27;;;;;;;5.95;3.60;;;;;;;11.66;85.79;100617.00;6041154;23;20006;-84
2021/06/02 06:09:30;;;;;;;5.40;3.70;;;;;;;11.67;85.43;100616.00;6024647;23;20165;-83
2021/06/02 06:12:20;;;;;;;5.40;3.50;;;;;;;11.64;85.85;100622.59;6040998;23;20013;-85
2021/06/02 06:15:07;;;;;;;11.38;4.60;;;;;;;11.64;85.66;100610.97;6063873;23;20031;-85
2021/06/02 06:18:03;;;;;;;6.72;3.83;;;;;;;11.66;85.83;100614.31;6038416;23;20011;-84
2021/06/02 06:20:31;;;;;;;5.63;4.22;;;;;;;11.69;85.92;100621.19;6016274;23;20030;-86
2021/06/02 06:23:19;;;;;;;5.57;3.55;;;;;;;11.67;86.17;100626.78;6038582;23;20523;-83
2021/06/02 06:25:47;;;;;;;6.50;3.63;;;;;;;11.64;86.34;100643.28;6041636;23;20011;-85
2021/06/02 06:28:19;;;;;;;5.57;3.83;;;;;;;11.56;86.78;100649.59;6064296;23;20066;-84
2021/06/02 06:30:48;;;;;;;5.15;3.50;;;;;;;11.63;86.60;100630.84;6037017;23;20009;-84
2021/06/02 06:33:15;;;;;;;6.00;4.30;;;;;;;11.62;86.06;100618.44;6016751;23;20003;-84
2021/06/02 06:35:43;;;;;;;6.20;3.75;;;;;;;11.65;86.58;100632.34;6038347;23;20444;-85
2021/06/02 06:38:14;;;;;;;7.20;3.70;;;;;;;11.62;87.12;100629.19;6015775;23;20007;-84
2021/06/02 06:40:40;;;;;;;5.82;3.83;;;;;;;11.55;86.85;100617.50;6014782;23;20015;-83
2021/06/02 06:43:06;;;;;;;6.57;4.07;;;;;;;11.55;87.50;100623.72;6014738;23;20015;-83
2021/06/02 06:45:33;;;;;;;6.50;3.83;;;;;;;11.53;87.75;100603.38;6039060;23;20003;-85
2021/06/02 06:48:02;;;;;;;6.60;4.38;;;;;;;11.51;87.89;100616.19;6014218;23;20010;-85
2021/06/02 06:50:28;;;;;;;5.72;3.90;;;;;;;11.44;87.65;100600.78;6037555;23;20333;-84
2021/06/02 06:52:58;;;;;;;5.85;4.05;;;;;;;11.48;87.57;100598.53;6039334;23;20035;-84
2021/06/02 06:55:24;;;;;;;6.07;4.32;;;;;;;11.43;87.89;100590.16;6038768;23;20035;-84
2021/06/02 06:57:50;;;;;;;6.70;3.80;;;;;;;11.38;87.68;100576.47;6014409;23;20007;-84
2021/06/02 07:00:17;;;;;;;6.88;3.88;;;;;;;11.44;88.07;100567.63;6016507;23;20425;-85
2021/06/02 07:02:44;;;;;;;5.38;3.78;;;;;;;11.49;88.20;100586.75;6016838;23;20023;-84
2021/06/02 07:05:10;;;;;;;5.55;4.20;;;;;;;11.39;88.34;100603.19;6015132;23;20059;-84
2021/06/02 07:07:37;;;;;;;7.63;4.22;;;;;;;11.45;88.71;100629.34;6015105;23;20109;-83
2021/06/02 07:10:07;;;;;;;9.35;4.95;;;;;;;11.52;88.33;100617.88;6037861;23;20463;-84
2021/06/02 07:12:35;;;;;;;7.28;5.00;;;;;;;11.55;88.56;100610.25;6014063;23;20853;-84
2021/06/02 07:15:03;;;;;;;8.15;5.25;;;;;;;11.68;88.50;100604.22;6013429;23;20006;-84
2021/06/02 07:17:29;;;;;;;6.82;4.82;;;;;;;11.68;88.29;100616.84;6010718;23;20011;-83
2021/06/02 07:20:01;;;;;;;7.03;4.93;;;;;;;11.66;88.49;100620.53;6012997;23;20444;-83
2021/06/02 07:22:27;;;;;;;8.55;5.63;;;;;;;11.73;88.25;100607.19;6013867;23;20015;-83
2021/06/02 07:25:02;;;;;;;8.00;5.60;;;;;;;11.82;87.76;100608.72;6015203;23;20003;-83
2021/06/02 07:27:29;;;;;;;11.13;6.93;;;;;;;11.90;87.66;100602.44;6016388;23;20006;-84
2021/06/02 07:29:54;;;;;;;8.52;5.65;;;;;;;11.91;87.63;100600.56;6017770;23;20021;-82
2021/06/02 07:32:20;;;;;;;7.95;5.40;;;;;;;11.83;88.29;100586.19;6014595;23;20011;-86
2021/06/02 07:34:46;;;;;;;9.02;5.50;;;;;;;11.90;88.69;100633.94;6016657;23;20018;-86
2021/06/02 07:37:11;;;;;;;11.32;6.40;;;;;;;11.87;88.75;100627.91;6039132;23;20030;-83
2021/06/02 07:39:37;;;;;;;9.40;6.25;;;;;;;11.92;88.71;100613.03;6037104;23;20010;-83
2021/06/02 07:42:04;;;;;;;10.13;6.15;;;;;;;11.99;88.43;100605.88;6014694;23;20007;-84
2021/06/02 07:44:31;;;;;;;9.23;6.07;;;;;;;12.05;88.36;100634.75;6015254;23;20030;-82
2021/06/02 07:46:57;;;;;;;8.50;6.18;;;;;;;12.02;88.62;100645.94;6037999;23;20006;-84
2021/06/02 07:49:22;;;;;;;7.78;5.85;;;;;;;12.01;88.10;100633.44;6038277;23;19995;-81
2021/06/02 07:51:51;;;;;;;8.00;6.15;;;;;;;11.95;88.48;100628.81;6045556;23;20006;-81
2021/06/02 07:54:20;;;;;;;7.93;5.82;;;;;;;11.98;88.47;100644.63;6021428;23;20017;-81
2021/06/02 07:56:45;;;;;;;10.50;5.97;;;;;;;12.01;88.51;100657.72;6045598;23;20007;-81
2021/06/02 07:59:11;;;;;;;9.48;6.63;;;;;;;11.97;89.14;100661.81;6020034;23;20038;-80
2021/06/02 08:01:37;;;;;;;7.57;5.65;;;;;;;11.99;89.21;100666.00;6019701;23;20651;-82
2021/06/02 08:04:02;;;;;;;9.05;6.00;;;;;;;11.95;88.92;100661.16;6022064;23;20051;-82
2021/06/02 08:06:28;;;;;;;8.80;5.55;;;;;;;11.90;88.92;100668.97;6044755;23;20014;-82
2021/06/02 08:08:53;;;;;;;10.55;6.60;;;;;;;11.93;89.37;100665.91;6043428;23;20021;-82
2021/06/02 08:11:19;;;;;;;9.35;6.55;;;;;;;11.90;89.27;100663.56;6021049;23;20063;-81
2021/06/02 08:13:44;;;;;;;9.48;5.50;;;;;;;11.79;89.44;100643.31;6045956;23;19999;-82
2021/06/02 08:16:22;;;;;;;;;;;;;;;;;;;;;
2021/06/02 08:18:48;;;;;;;8.23;5.35;;;;;;;11.76;89.42;100643.69;6044231;23;20059;-81
2021/06/02 08:21:13;;;;;;;8.90;5.60;;;;;;;11.96;89.17;100687.06;6020096;23;20349;-81
2021/06/02 08:23:39;;;;;;;8.18;5.55;;;;;;;11.94;88.84;100699.91;6042121;23;20086;-80
2021/06/02 08:26:05;;;;;;;10.90;6.15;;;;;;;12.00;89.00;100718.03;6042205;23;20104;-81
2021/06/02 08:28:32;;;;;;;8.55;6.10;;;;;;;11.94;89.11;100706.13;6043541;23;20067;-81
2021/06/02 08:30:57;;;;;;;15.68;9.73;;;;;;;12.01;89.25;100715.16;6018228;23;20018;-80
2021/06/02 08:33:23;;;;;;;14.48;9.20;;;;;;;12.06;89.43;100711.88;6018680;23;20340;-80
2021/06/02 08:35:48;;;;;;;16.67;10.65;;;;;;;12.07;89.45;100697.41;6067345;23;20055;-81
2021/06/02 08:38:14;;;;;;;18.55;10.75;;;;;;;12.22;89.58;100687.41;6069287;23;20345;-81
2021/06/02 08:40:39;;;;;;;15.98;10.65;;;;;;;12.34;89.19;100676.16;6043076;23;20014;-82
2021/06/02 08:43:05;;;;;;;15.60;9.70;;;;;;;12.36;89.15;100668.69;6044995;23;20013;-81
2021/06/02 08:45:30;;;;;;;15.93;9.50;;;;;;;12.45;89.23;100673.81;6049719;23;20535;-81
2021/06/02 08:47:55;;;;;;;14.15;8.63;;;;;;;12.44;89.35;100655.13;6022836;23;20046;-82
2021/06/02 08:50:21;;;;;;;13.95;8.60;;;;;;;12.45;88.85;100641.44;6050699;23;20018;-81
2021/06/02 08:52:47;;;;;;;10.90;6.80;;;;;;;12.47;88.87;100639.41;6047976;23;20003;-80
2021/06/02 08:55:16;;;;;;;10.35;6.78;;;;;;;12.51;88.90;100629.06;6044446;23;20381;-82
2021/06/02 08:57:47;;;;;;;10.40;6.45;;;;;;;12.56;88.98;100632.00;6041594;23;20333;-83
2021/06/02 09:00:16;;;;;;;10.15;6.15;;;;;;;12.57;88.82;100624.75;6017390;23;20034;-84
2021/06/02 09:02:45;;;;;;;11.55;7.10;;;;;;;12.55;88.84;100619.56;6014640;23;20006;-82
2021/06/02 09:05:12;;;;;;;11.70;6.32;;;;;;;12.55;88.73;100608.78;6041219;23;20002;-84
2021/06/02 09:07:39;;;;;;;9.27;6.53;;;;;;;12.53;88.74;100603.56;6040062;23;20017;-85
2021/06/02 09:10:09;;;;;;;9.55;6.50;;;;;;;12.43;88.89;100583.34;6017036;23;20030;-83
2021/06/02 09:12:37;;;;;;;11.75;7.03;;;;;;;12.54;88.87;100605.25;6039781;23;20017;-85
2021/06/02 09:15:10;;;;;;;11.18;7.05;;;;;;;12.53;88.72;100598.16;6040373;23;20018;-85
2021/06/02 09:17:57;;;;;;;11.82;7.22;;;;;;;12.62;88.44;100633.97;6041960;23;20006;-85
2021/06/02 09:20:44;;;;;;;11.75;6.95;;;;;;;12.58;88.91;100648.00;6041964;23;20099;-85
2021/06/02 09:23:35;;;;;;;17.10;10.13;;;;;;;12.52;89.19;100663.09;6018886;23;20078;-85
2021/06/02 09:26:24;;;;;;;12.65;7.88;;;;;;;12.56;89.36;100675.16;6067638;23;20003;-85
2021/06/02 09:28:54;;;;;;;19.85;11.88;;;;;;;12.56;89.38;100685.94;6041207;23;20011;-83
2021/06/02 09:31:30;;;;;;;14.63;9.27;;;;;;;12.64;89.35;100676.91;6018731;23;20038;-84
2021/06/02 09:33:57;;;;;;;10.35;7.00;;;;;;;12.72;89.01;100682.19;6042271;23;20013;-86
2021/06/02 09:36:28;;;;;;;14.48;7.45;;;;;;;12.77;88.99;100680.56;6019328;23;20011;-85
2021/06/02 09:38:55;;;;;;;11.93;7.28;;;;;;;12.76;88.81;100664.59;6018095;23;20326;-85
2021/06/02 09:41:21;;;;;;;13.52;8.10;;;;;;;12.86;88.68;100669.66;6018442;23;20018;-83
2021/06/02 09:43:46;;;;;;;13.00;8.98;;;;;;;12.88;88.33;100656.81;6017807;23;20010;-84
2021/06/02 09:46:16;;;;;;;14.50;9.07;;;;;;;12.96;88.36;100638.59;6042385;23;20003;-84
2021/06/02 09:48:47;;;;;;;14.60;9.52;;;;;;;13.17;88.02;100624.25;6018404;23;20009;-83
2021/06/02 09:51:37;;;;;;;13.90;9.40;;;;;;;13.21;88.23;100600.41;6043670;23;19999;-84
2021/06/02 09:54:05;;;;;;;14.98;9.25;;;;;;;13.30;88.54;100606.50;6041758;23;20007;-84
2021/06/02 09:56:36;;;;;;;15.38;8.55;;;;;;;13.34;88.51;100602.41;6018665;23;20137;-83
2021/06/02 09:59:04;;;;;;;15.50;9.73;;;;;;;13.32;88.81;100597.19;6016798;23;20026;-85
2021/06/02 10:01:59;;;;;;;15.23;10.25;;;;;;;13.36;88.97;100614.69;6018564;23;20013;-86
2021/06/02 10:04:34;;;;;;;15.60;10.05;;;;;;;13.37;89.21;100637.94;6041648;23;20449;-82
2021/06/02 10:07:01;;;;;;;17.27;10.85;;;;;;;13.30;88.90;100638.91;6068929;23;20425;-85
2021/06/02 10:09:28;;;;;;;18.70;11.80;;;;;;;13.39;88.80;100627.78;6040648;23;20752;-84
2021/06/02 10:12:02;;;;;;;16.10;11.57;;;;;;;13.53;88.28;100615.19;6042356;23;20018;-86
2021/06/02 10:14:27;;;;;;;14.60;10.52;;;;;;;13.69;87.55;100591.59;6018608;23;20011;-82
2021/06/02 10:16:53;;;;;;;16.75;11.75;;;;;;;13.93;86.72;100590.22;6042305;23;20013;-84
2021/06/02 10:19:44;;;;;;;18.60;11.98;;;;;;;14.28;86.39;100572.03;6015591;23;20082;-83
2021/06/02 10:22:29;;;;;;;20.50;11.57;;;;;;;14.70;86.19;100570.03;6040156;23;20007;-85
2021/06/02 10:25:07;;;;;;;15.88;10.23;;;;;;;14.89;85.64;100562.97;6018728;23;20030;-86
2021/06/02 10:27:32;;;;;;;15.50;11.02;;;;;;;14.99;85.58;100551.72;6016465;23;20035;-83
2021/06/02 10:29:58;;;;;;;14.75;9.93;;;;;;;14.95;85.06;100529.63;6017437;23;20003;-83
2021/06/02 10:32:24;;;;;;;15.18;9.85;;;;;;;15.09;84.85;100561.06;6017645;23;20003;-85
2021/06/02 10:34:53;;;;;;;12.77;9.45;;;;;;;14.97;84.68;100573.56;6017822;23;20010;-85
2021/06/02 10:37:21;;;;;;;14.55;9.93;;;;;;;14.72;85.10;100571.50;6018237;23;20081;-84
2021/06/02 10:40:05;;;;;;;14.57;10.40;;;;;;;14.64;85.88;100589.81;6041836;23;20071;-82
2021/06/02 10:42:34;;;;;;;14.73;11.43;;;;;;;14.63;86.30;100591.69;6017045;23;20014;-83
2021/06/02 10:45:03;;;;;;;15.88;10.73;;;;;;;14.62;86.16;100594.59;6018941;23;20579;-85
2021/06/02 10:47:29;;;;;;;16.83;11.45;;;;;;;14.54;86.49;100589.38;6018090;23;20003;-84
2021/06/02 10:49:54;;;;;;;17.80;11.57;;;;;;;14.46;86.35;100593.91;6016526;23;20018;-83
2021/06/02 10:52:39;;;;;;;22.00;15.77;;;;;;;14.36;86.53;100601.59;6040541;23;20445;-84
2021/06/02 10:55:37;;;;;;;24.63;16.23;;;;;;;14.19;86.58;100593.03;6018556;23;20094;-83
2021/06/02 10:58:18;;;;;;;22.05;16.45;;;;;;;14.14;86.83;100591.97;6016328;23;19999;-84
2021/06/02 11:00:45;;;;;;;18.55;14.15;;;;;;;14.08;87.16;100599.84;6016993;23;20098;-84
2021/06/02 11:03:37;;;;;;;22.05;15.13;;;;;;;14.12;87.25;100602.97;6017307;23;20007;-84
2021/06/02 11:06:06;;;;;;;18.85;12.65;;;;;;;14.14;87.44;100602.78;6012277;23;20006;-83
2021/06/02 11:08:50;;;;;;;19.05;12.68;;;;;;;14.19;87.45;100578.69;6039607;23;20006;-86
2021/06/02 11:11:26;;;;;;;21.80;14.30;;;;;;;14.29;87.07;100571.84;6069262;23;20009;-84
2021/06/02 11:14:17;;;;;;;19.73;14.93;;;;;;;14.34;86.84;100560.38;6017217;23;20007;-85
2021/06/02 11:17:00;;;;;;;20.27;13.40;;;;;;;14.38;86.67;100553.53;6040895;23;20007;-85
2021/06/02 11:19:37;;;;;;;22.92;13.60;;;;;;;14.42;86.82;100551.25;6064682;23;20306;-83
2021/06/02 11:22:08;;;;;;;17.15;13.48;;;;;;;14.48;86.61;100558.56;6019139;23;20018;-83
2021/06/02 11:27:14;;;;;;;17.08;12.45;;;;;;;14.38;86.56;100560.81;6067779;23;20014;-84
2021/06/02 11:29:52;;;;;;;17.42;12.68;;;;;;;14.30;87.02;100556.44;6041589;23;20034;-84
2021/06/02 11:32:18;;;;;;;18.13;13.07;;;;;;;14.35;87.27;100553.13;6044666;23;20017;-83
2021/06/02 11:34:45;;;;;;;16.67;13.13;;;;;;;14.48;86.91;100555.84;6045125;23;20098;-83
2021/06/02 11:37:13;;;;;;;20.48;14.20;;;;;;;14.55;86.79;100556.69;6041500;23;20033;-84
2021/06/02 11:39:40;;;;;;;18.90;13.93;;;;;;;14.69;86.69;100557.56;6018756;23;20062;-85
2021/06/02 11:42:07;;;;;;;22.05;13.82;;;;;;;14.76;86.15;100557.53;6016351;23;20018;-84
2021/06/02 11:44:35;;;;;;;17.10;12.38;;;;;;;14.84;85.88;100560.03;6040367;23;20050;-86
2021/06/02 11:47:01;;;;;;;17.48;12.68;;;;;;;14.86;85.57;100561.50;6015695;23;20513;-85
2021/06/02 11:49:33;;;;;;;20.00;13.13;;;;;;;14.84;85.58;100552.75;6039607;23;19999;-84
2021/06/02 11:52:19;;;;;;;17.45;13.00;;;;;;;14.89;85.36;100561.06;6038768;23;20437;-85
2021/06/02 11:54:52;;;;;;;16.73;11.80;;;;;;;14.87;85.50;100548.78;6015960;23;20011;-85
2021/06/02 11:57:28;;;;;;;17.92;11.75;;;;;;;14.96;85.82;100552.97;6013847;23;20408;-84
2021/06/02 11:59:55;;;;;;;17.85;12.50;;;;;;;15.01;85.66;100553.16;6037968;23;20395;-83
2021/06/02 12:02:21;;;;;;;18.17;12.48;;;;;;;15.04;85.87;100550.03;6016417;23;20007;-85